Mill Creek, Oklahoma
Current Conditions -  °F | °C
As of 3:55 PM on Thursday 18 Dec 2014 (Local Time) from KADM Reporting Station
Overcast Overcast  
Wind Chill: 45°   Ceiling: 500
Heat Index: 45°   Visibility: 10mi
Dew Point: 43°   Wind: 0mph
Humidity: 93%   Direction: NA
Pressure: 30.13"   Gusts: NA
Location:  34.4°N, 96.83°W
Report Text: KADM 182155Z 00000KT 10SM BKN005 OVC011 07/06 A3013
Loading
Personal Weather Stations






























Interactive Weather Map New forecast layout! Learn more

10-Day Weather Forecast

Advertisements
Track Severe Weather on mobile